Madrid El Retiro

latitud = 40° 24' 40''N | longitud = 003° 40' 41''W
667 metros sobre el nivel del mar | datos mensuales

Fecha, hora, temperatura, viento dirección y velocidad, humedad y presión.

  • 23-04-2018 10:00:00 | 15.50°C | Norte |12.00 km/h | 64.00% | 940.60 hPa
  • 23-04-2018 09:00:00 | 14.80°C | Nordeste |3.00 km/h | 63.00% | 941.00 hPa
  • 23-04-2018 08:00:00 | 15.20°C | Este |10.00 km/h | 58.00% | 941.10 hPa
  • 23-04-2018 07:00:00 | 15.60°C | Nordeste |7.00 km/h | 55.00% | 940.00 hPa
  • 23-04-2018 06:00:00 | 15.30°C | Este |5.00 km/h | 55.00% | 940.50 hPa
  • 23-04-2018 05:00:00 | 15.30°C | Este |4.00 km/h | 60.00% | 941.00 hPa
  • 23-04-2018 04:00:00 | 15.40°C | Sudoeste |3.00 km/h | 65.00% | 940.90 hPa
  • 23-04-2018 03:00:00 | 15.80°C | Este |3.00 km/h | 64.00% | 940.40 hPa
  • 23-04-2018 02:00:00 | 16.70°C | Sudeste |8.00 km/h | 60.00% | 940.40 hPa
  • 23-04-2018 01:00:00 | 17.40°C | Sudeste |8.00 km/h | 57.00% | 940.00 hPa
  • 23-04-2018 00:00:00 | 17.70°C | Este |4.00 km/h | 59.00% | 939.70 hPa
  • 22-04-2018 23:00:00 | 18.60°C | Este |5.00 km/h | 55.00% | 939.20 hPa
  • 22-04-2018 22:00:00 | 19.70°C | Este |6.00 km/h | 52.00% | 938.90 hPa
  • 22-04-2018 21:00:00 | 21.00°C | Sudeste |6.00 km/h | 48.00% | 938.30 hPa
  • 22-04-2018 20:00:00 | 22.00°C | Sudeste |6.00 km/h | 44.00% | 938.00 hPa
  • 22-04-2018 19:00:00 | 23.10°C | Sudeste |9.00 km/h | 43.00% | 937.40 hPa
  • 22-04-2018 18:00:00 | 22.50°C | Este |11.00 km/h | 42.00% | 937.10 hPa
  • 22-04-2018 17:00:00 | 22.60°C | Sudeste |11.00 km/h | 41.00% | 937.70 hPa
  • 22-04-2018 16:00:00 | 22.60°C | Oeste |3.00 km/h | 41.00% | 939.00 hPa
  • 22-04-2018 15:00:00 | 21.20°C | Sudoeste |4.00 km/h | 45.00% | 939.20 hPa
  • 22-04-2018 14:00:00 | 22.10°C | Este |5.00 km/h | 42.00% | 938.60 hPa
  • 22-04-2018 13:00:00 | 21.50°C | Nordeste |9.00 km/h | 45.00% | 938.90 hPa
  • 22-04-2018 12:00:00 | 19.90°C | Nordeste |11.00 km/h | 49.00% | 939.10 hPa
  • 22-04-2018 11:00:00 | 17.40°C | Nordeste |10.00 km/h | 55.00% | 939.50 hPa